Aérodrome :
LOGIN :

S'inscrire | Disclaimer

   EN    FR    IT 

 










Légende :    VFR   VFR Marginal   IFR   IFR Intensif   IFR Très Intensif
Visi : 
Plafond : 
>= 8 km
>= 3000ft
5 à 8 km
1000 à 3000 ft
1500m à 5 km
500 à 1000 ft
800 à 1500m
200 à 500 ft
< 800m
< 200 ft
Symboles :   Orages  Brouillard  Fortes neiges  Fortes précipitations  Vent > 20 kt
SIGMETs :   Divers  Orages  Givrage  Turbulence  Onde Orograph.  Cendres Volcan.






- Altitude de l'aérodrome : 36 ft
- Code IATA : LTQ


LFAT - Le Touquet

DERNIER METAR :
  • 082200Z AUTO 26007KT 230V300 9999 SCT041 BKN047 BKN056 08/02 Q1001

METARs EXPIRÉS :
  • 082130Z AUTO 26008KT 230V290 9999 BKN039 BKN048 BKN054 08/02 Q1000
  • 082100Z AUTO 27008KT 220V310 9999 FEW040/// OVC190/// ///CB 08/01 Q1000
  • 082030Z AUTO 28009KT 250V310 9999 BKN041/// BKN047/// BKN054/// ///CB 09/01 Q1000
  • 082000Z AUTO 28009KT 250V330 9999 FEW040/// BKN049/// BKN120/// ///CB 09/02 Q1000
  • 081930Z AUTO 24011KT 210V280 9999 FEW026/// BKN038/// BKN045/// ///CB 08/05 Q0999
  • 081900Z AUTO 22011G21KT 180V250 9999 FEW017/// BKN023/// BKN036/// ///CB 07/05 Q0999

TAF TAF LFAT
Valide du 08 à 15h jusqu'au 09 à 00h UTC


081400Z 0815/0824 20012KT 9999 BKN025
TEMPO 0815/0820 2000 SHRA BKN013 BKN020CB
PROB30
TEMPO 0815/0820 TSRAGS
ATIS : +33 3 21 06 62 84



MET'MAP, la Météo Aéronautique d'un coup d'oeil ! - Copyright ORBIFLY Décembre 2007 - Disclaimer

ORBIFLY MET'MAP TEAM :

Programmation & Développement : Alexandra Zaïnal
Sur une idée originale de : Baudouin d'Aumeries
Assistance à la programmation : Marc-Olivier Méhu
Soutien technique & logistique : Manuel Goepfert

Contact : metmap@orbifly.com




SOURCES & CREDITS :

   NOAA